TimeCDT,TemperatureF,Dew PointF,Humidity,Sea Level PressureIn,VisibilityMPH,Wind Direction,Wind SpeedMPH,Gust SpeedMPH,PrecipitationIn,Events,Conditions,WindDirDegrees,DateUTC
12:56 AM,77.0,73.0,88,29.99,8.0,SSE,6.9,-,N/A,,Clear,160,2013-06-23 05:56:00
1:56 AM,77.0,73.0,88,29.98,8.0,South,4.6,-,N/A,,Clear,170,2013-06-23 06:56:00
2:56 AM,77.0,73.0,88,29.98,8.0,South,5.8,-,N/A,,Clear,190,2013-06-23 07:56:00
3:56 AM,77.0,73.0,88,29.98,7.0,South,4.6,-,N/A,,Clear,180,2013-06-23 08:56:00
4:56 AM,75.0,73.0,94,29.99,6.0,SSW,3.5,-,N/A,,Clear,200,2013-06-23 09:56:00
5:56 AM,73.9,72.0,93,30.00,5.0,Calm,Calm,-,N/A,,Clear,0,2013-06-23 10:56:00
6:56 AM,75.0,73.0,94,30.01,6.0,SSE,3.5,-,N/A,,Partly Cloudy,160,2013-06-23 11:56:00
7:56 AM,78.1,73.0,84,30.02,6.0,South,6.9,-,N/A,,Haze,180,2013-06-23 12:56:00
8:56 AM,81.0,75.0,82,30.02,7.0,South,5.8,-,N/A,,Scattered Clouds,190,2013-06-23 13:56:00
9:56 AM,84.9,73.0,67,30.03,10.0,South,10.4,-,N/A,,Scattered Clouds,170,2013-06-23 14:56:00
10:56 AM,87.1,72.0,61,30.03,10.0,South,9.2,-,N/A,,Scattered Clouds,190,2013-06-23 15:56:00
11:56 AM,89.1,72.0,57,30.02,10.0,SSE,8.1,-,N/A,,Scattered Clouds,150,2013-06-23 16:56:00
12:56 PM,91.0,71.1,52,30.01,10.0,SSE,10.4,-,N/A,,Mostly Cloudy,150,2013-06-23 17:56:00
1:56 PM,91.0,70.0,50,29.99,10.0,South,8.1,-,N/A,,Mostly Cloudy,190,2013-06-23 18:56:00
2:56 PM,91.9,66.9,44,29.98,10.0,South,11.5,-,N/A,,Scattered Clouds,190,2013-06-23 19:56:00
3:56 PM,93.0,68.0,44,29.96,10.0,South,10.4,-,N/A,,Scattered Clouds,170,2013-06-23 20:56:00
4:56 PM,91.9,68.0,45,29.95,10.0,SSE,9.2,-,N/A,,Partly Cloudy,150,2013-06-23 21:56:00
5:56 PM,91.9,66.9,44,29.94,10.0,SSE,9.2,-,N/A,,Partly Cloudy,150,2013-06-23 22:56:00
6:56 PM,88.0,72.0,59,29.95,10.0,SE,9.2,-,N/A,,Partly Cloudy,130,2013-06-23 23:56:00
7:56 PM,86.0,72.0,63,29.95,10.0,SE,8.1,-,N/A,,Scattered Clouds,130,2013-06-24 00:56:00
8:56 PM,82.9,72.0,69,29.96,10.0,SE,6.9,-,N/A,,Partly Cloudy,140,2013-06-24 01:56:00
9:56 PM,82.0,71.1,69,29.97,10.0,SE,5.8,-,N/A,,Partly Cloudy,140,2013-06-24 02:56:00
10:56 PM,80.1,72.0,76,30.00,10.0,SSE,8.1,-,N/A,,Partly Cloudy,150,2013-06-24 03:56:00
11:56 PM,79.0,72.0,79,30.00,10.0,SSE,8.1,-,N/A,,Partly Cloudy,160,2013-06-24 04:56:00